Time;durP1;ratioP1;P1;durP2;ratioP2;P2;SDS_P1;SDS_P2;PMS_P1;PMS_P2;Temp;Humidity;BMP_temperature;BMP_pressure;BME280_temperature;BME280_humidity;BME280_pressure;Samples;Min_cycle;Max_cycle;Signal;HPM_P1;HPM_P2
2021/01/10 00:08:29;;;;;;;4.33;0.77;;;7.70;99.90;;;;;;20462455;29;20233;-69
2021/01/10 00:18:32;;;;;;;0.77;0.20;;;7.70;99.90;;;;;;20463405;29;20350;-67
2021/01/10 00:28:35;;;;;;;0.20;0.10;;;7.70;99.90;;;;;;20461193;29;20208;-67
2021/01/10 00:38:39;;;;;;;0.20;0.10;;;7.60;99.90;;;;;;20459944;29;20225;-67
2021/01/10 00:48:41;;;;;;;4.00;1.07;;;7.40;99.90;;;;;;20458738;29;20197;-67
2021/01/10 00:58:45;;;;;;;0.27;0.27;;;7.40;99.90;;;;;;20460540;29;20220;-68
2021/01/10 01:08:47;;;;;;;0.20;0.10;;;7.70;99.90;;;;;;20622012;23;20227;-74
2021/01/10 01:18:52;;;;;;;0.33;0.33;;;7.80;99.90;;;;;;20620926;28;21051;-78
2021/01/10 01:28:55;;;;;;;0.30;0.20;;;7.50;99.90;;;;;;20617807;28;20245;-77
2021/01/10 01:39:00;;;;;;;0.20;0.10;;;7.70;99.90;;;;;;20618428;28;21026;-75
2021/01/10 01:49:05;;;;;;;0.20;0.20;;;7.60;99.90;;;;;;20617856;28;20649;-78
2021/01/10 01:59:10;;;;;;;0.20;0.10;;;7.50;99.90;;;;;;20618475;28;20368;-76
2021/01/10 02:09:16;;;;;;;0.20;0.10;;;7.40;99.90;;;;;;20617191;28;20238;-74
2021/01/10 02:19:27;;;;;;;0.20;0.10;;;7.40;99.90;;;;;;20613164;28;20231;-74
2021/01/10 02:29:33;;;;;;;0.20;0.10;;;7.30;99.90;;;;;;20639210;28;20564;-73
2021/01/10 02:39:47;;;;;;;0.20;0.10;;;7.30;99.90;;;;;;20637608;28;20223;-74
2021/01/10 02:49:50;;;;;;;0.30;0.20;;;7.70;99.90;;;;;;20639480;28;20199;-70
2021/01/10 02:59:55;;;;;;;0.20;0.10;;;7.50;99.90;;;;;;20639227;28;20243;-76
2021/01/10 03:09:59;;;;;;;0.20;0.10;;;7.80;99.90;;;;;;20637812;28;20204;-77
2021/01/10 03:20:01;;;;;;;0.20;0.10;;;8.00;99.90;;;;;;20637139;28;20696;-79
2021/01/10 03:30:07;;;;;;;0.20;0.20;;;7.80;99.90;;;;;;20638416;28;20191;-79
2021/01/10 03:40:10;;;;;;;0.20;0.17;;;7.80;99.90;;;;;;20606358;28;20255;-77
2021/01/10 03:50:14;;;;;;;0.20;0.10;;;7.90;99.90;;;;;;20623851;28;20230;-74
2021/01/10 04:00:18;;;;;;;0.20;0.20;;;7.60;99.90;;;;;;20623567;28;20247;-76
2021/01/10 04:10:22;;;;;;;0.60;0.40;;;7.50;99.90;;;;;;20623419;28;20251;-75
2021/01/10 04:20:24;;;;;;;0.20;0.20;;;7.40;99.90;;;;;;20624343;28;20219;-79
2021/01/10 04:30:28;;;;;;;0.20;0.10;;;7.50;99.90;;;;;;20605011;28;20192;-73
2021/01/10 04:40:30;;;;;;;0.20;0.10;;;7.40;99.90;;;;;;20620063;28;20250;-72
2021/01/10 04:50:35;;;;;;;0.73;0.33;;;7.20;99.90;;;;;;20619714;28;20199;-74
2021/01/10 05:00:37;;;;;;;1.53;0.73;;;7.40;99.90;;;;;;20620845;28;20227;-76
2021/01/10 05:10:41;;;;;;;0.20;0.10;;;7.10;99.90;;;;;;20611252;28;20203;-75
2021/01/10 05:20:46;;;;;;;0.20;0.10;;;7.30;99.90;;;;;;20609900;28;20236;-75
2021/01/10 05:30:50;;;;;;;0.20;0.20;;;7.40;99.90;;;;;;20614527;28;20556;-75
2021/01/10 05:40:54;;;;;;;0.20;0.10;;;7.50;99.90;;;;;;20618333;28;20227;-76
2021/01/10 05:51:06;;;;;;;0.20;0.10;;;7.50;99.90;;;;;;20615818;28;20192;-77
2021/01/10 06:01:13;;;;;;;0.20;0.10;;;7.50;99.90;;;;;;20614240;28;20499;-77
2021/01/10 06:11:26;;;;;;;0.20;0.10;;;7.50;99.90;;;;;;20614373;28;20204;-74
2021/01/10 06:21:30;;;;;;;0.20;0.10;;;7.60;99.90;;;;;;20611877;28;20226;-75
2021/01/10 06:31:35;;;;;;;0.30;0.20;;;7.60;99.90;;;;;;20615449;28;20534;-76
2021/01/10 06:42:14;;;;;;;0.47;0.20;;;7.70;99.90;;;;;;20614843;28;20251;-76
2021/01/10 06:52:20;;;;;;;0.20;0.10;;;7.80;99.90;;;;;;20611169;28;20211;-75
2021/01/10 07:02:22;;;;;;;0.20;0.10;;;7.60;99.90;;;;;;20594798;28;20246;-74
2021/01/10 07:12:26;;;;;;;0.20;0.10;;;7.70;99.90;;;;;;20623080;28;20206;-74
2021/01/10 07:22:34;;;;;;;0.20;0.10;;;7.70;99.90;;;;;;20625400;28;20361;-73
2021/01/10 07:32:38;;;;;;;0.20;0.10;;;7.80;99.90;;;;;;20624269;28;20238;-75
2021/01/10 07:42:41;;;;;;;0.27;0.17;;;7.80;99.90;;;;;;20626765;28;20238;-74
2021/01/10 07:52:53;;;;;;;0.20;0.10;;;8.00;99.90;;;;;;20606711;28;20195;-74
2021/01/10 08:02:58;;;;;;;0.30;0.30;;;8.10;99.90;;;;;;20605593;28;20234;-76
2021/01/10 08:13:01;;;;;;;0.20;0.10;;;8.10;99.90;;;;;;20620589;28;20318;-73
2021/01/10 08:23:06;;;;;;;0.20;0.10;;;8.10;99.90;;;;;;20623184;28;20234;-74
2021/01/10 08:33:16;;;;;;;0.20;0.20;;;8.20;99.90;;;;;;20620553;28;20686;-71
2021/01/10 08:43:20;;;;;;;0.33;0.20;;;8.30;99.90;;;;;;20601199;28;20234;-75
2021/01/10 08:53:39;;;;;;;0.20;0.10;;;8.30;99.90;;;;;;20619280;28;20214;-76
2021/01/10 09:03:55;;;;;;;0.20;0.10;;;8.30;99.90;;;;;;20627695;28;20245;-75
2021/01/10 09:14:01;;;;;;;0.20;0.10;;;8.40;99.90;;;;;;20617929;28;20777;-75
2021/01/10 09:24:04;;;;;;;0.20;0.20;;;8.50;99.90;;;;;;20614843;28;20234;-74
2021/01/10 09:34:08;;;;;;;0.20;0.10;;;8.50;99.90;;;;;;20614436;28;20200;-75
2021/01/10 09:44:18;;;;;;;0.63;0.63;;;8.50;99.90;;;;;;20613692;28;20245;-74
2021/01/10 09:54:22;;;;;;;0.20;0.10;;;8.50;99.90;;;;;;20614537;28;20346;-74
2021/01/10 10:04:29;;;;;;;0.30;0.30;;;8.40;99.90;;;;;;20612024;28;20227;-74
2021/01/10 10:14:32;;;;;;;0.20;0.10;;;8.00;99.90;;;;;;20613889;28;20653;-75
2021/01/10 10:24:35;;;;;;;0.40;0.40;;;8.00;99.90;;;;;;20612329;28;20575;-74
2021/01/10 10:34:38;;;;;;;0.20;0.20;;;8.10;99.90;;;;;;20612041;28;20215;-73
2021/01/10 10:44:41;;;;;;;0.20;0.10;;;8.40;99.90;;;;;;20615997;28;20726;-71
2021/01/10 10:54:45;;;;;;;0.20;0.20;;;8.50;99.90;;;;;;20625933;28;20206;-74
2021/01/10 11:04:48;;;;;;;0.20;0.20;;;8.80;99.90;;;;;;20624563;28;20250;-76
2021/01/10 11:14:51;;;;;;;1.03;0.60;;;8.70;99.90;;;;;;20625305;28;20207;-75
2021/01/10 11:24:53;;;;;;;0.73;0.73;;;8.60;99.90;;;;;;20624528;28;20553;-74
2021/01/10 11:34:57;;;;;;;0.20;0.10;;;8.20;99.90;;;;;;20603382;28;20583;-71
2021/01/10 11:45:00;;;;;;;0.30;0.20;;;8.20;99.90;;;;;;20621550;28;20635;-73
2021/01/10 11:55:03;;;;;;;1.03;0.70;;;7.70;99.90;;;;;;20605937;28;20226;-72
2021/01/10 12:05:07;;;;;;;0.30;0.30;;;7.30;99.90;;;;;;20587975;28;20714;-75
2021/01/10 12:15:11;;;;;;;0.20;0.10;;;7.20;99.90;;;;;;20622168;28;20210;-76
2021/01/10 12:25:14;;;;;;;0.20;0.10;;;7.30;99.90;;;;;;20619890;28;20231;-73
2021/01/10 12:35:18;;;;;;;0.20;0.10;;;7.70;99.90;;;;;;20621890;28;20214;-73
2021/01/10 12:45:21;;;;;;;0.20;0.10;;;8.10;99.90;;;;;;20616998;28;20227;-72
2021/01/10 12:55:24;;;;;;;0.20;0.20;;;8.40;99.90;;;;;;20618008;28;20708;-73
2021/01/10 13:05:27;;;;;;;2.50;0.50;;;8.50;99.90;;;;;;20605599;28;20227;-74
2021/01/10 13:15:30;;;;;;;0.30;0.20;;;8.50;99.90;;;;;;20595883;28;20421;-74
2021/01/10 13:25:33;;;;;;;0.20;0.10;;;8.80;99.90;;;;;;20587817;28;20219;-72
2021/01/10 13:35:36;;;;;;;0.20;0.10;;;9.00;99.90;;;;;;20609370;28;20215;-73
2021/01/10 13:45:39;;;;;;;0.40;0.40;;;9.20;99.90;;;;;;20600393;28;20265;-75
2021/01/10 13:55:42;;;;;;;0.60;0.40;;;9.40;99.90;;;;;;20613745;28;20732;-73
2021/01/10 14:05:45;;;;;;;0.60;0.60;;;9.10;99.90;;;;;;20605305;28;20231;-70
2021/01/10 14:15:49;;;;;;;1.03;0.50;;;9.10;99.90;;;;;;20599474;28;20445;-71
2021/01/10 14:25:52;;;;;;;0.20;0.10;;;9.20;99.90;;;;;;20594285;28;20234;-71
2021/01/10 14:35:56;;;;;;;0.30;0.30;;;9.20;99.90;;;;;;20613473;28;20467;-72
2021/01/10 14:45:59;;;;;;;0.20;0.17;;;8.90;99.90;;;;;;20596809;28;20223;-73
2021/01/10 14:56:02;;;;;;;1.20;1.10;;;8.80;99.90;;;;;;20593447;28;20927;-71
2021/01/10 15:06:05;;;;;;;0.80;0.67;;;8.70;99.90;;;;;;20608226;28;20231;-70
2021/01/10 15:16:09;;;;;;;1.53;1.20;;;8.70;99.90;;;;;;20591174;28;20204;-71
2021/01/10 15:26:12;;;;;;;1.40;0.80;;;8.50;99.90;;;;;;20593305;28;20254;-71
2021/01/10 15:36:19;;;;;;;1.70;0.40;;;8.40;99.90;;;;;;20623467;28;20278;-71
2021/01/10 15:46:21;;;;;;;0.20;0.10;;;8.40;99.90;;;;;;20603957;28;20227;-73
2021/01/10 15:56:26;;;;;;;0.60;0.60;;;8.40;99.90;;;;;;20597563;28;20200;-71
2021/01/10 16:06:33;;;;;;;0.20;0.10;;;8.30;99.90;;;;;;20608228;28;20238;-72
2021/01/10 16:16:37;;;;;;;0.63;0.63;;;8.30;99.90;;;;;;20618522;28;20203;-72
2021/01/10 16:26:40;;;;;;;2.00;1.57;;;8.30;99.90;;;;;;20617464;28;20338;-71
2021/01/10 16:36:51;;;;;;;1.33;1.10;;;8.10;99.90;;;;;;20618196;28;20597;-72
2021/01/10 16:46:53;;;;;;;1.07;0.73;;;7.80;99.90;;;;;;20638279;28;20237;-73
2021/01/10 16:56:58;;;;;;;0.50;0.50;;;7.50;99.90;;;;;;20679612;28;20191;-71
2021/01/10 17:07:04;;;;;;;2.17;0.60;;;7.50;99.90;;;;;;20695579;28;20283;-73
2021/01/10 17:17:07;;;;;;;0.80;0.80;;;7.30;99.90;;;;;;20658138;28;20566;-72
2021/01/10 17:27:10;;;;;;;1.33;1.17;;;7.30;99.90;;;;;;20533057;28;20223;-72
2021/01/10 17:37:13;;;;;;;0.50;0.50;;;7.30;99.90;;;;;;20597793;28;20188;-72
2021/01/10 17:47:16;;;;;;;0.47;0.47;;;7.30;99.90;;;;;;20611316;28;20230;-72
2021/01/10 17:57:19;;;;;;;1.00;1.00;;;7.20;99.90;;;;;;20609609;28;20228;-70
2021/01/10 18:07:26;;;;;;;0.53;0.53;;;7.10;99.90;;;;;;20610220;28;20853;-72
2021/01/10 18:17:30;;;;;;;0.80;0.80;;;7.00;99.90;;;;;;20597345;28;20210;-73
2021/01/10 18:27:33;;;;;;;0.20;0.20;;;7.00;99.90;;;;;;20609999;28;20440;-76
2021/01/10 18:37:36;;;;;;;1.70;0.93;;;6.90;99.90;;;;;;20609617;28;20279;-73
2021/01/10 18:47:41;;;;;;;0.53;0.53;;;6.80;99.90;;;;;;20609017;28;20775;-74
2021/01/10 18:57:45;;;;;;;0.20;0.20;;;6.80;99.90;;;;;;20608745;28;20195;-74
2021/01/10 19:07:50;;;;;;;1.80;1.17;;;6.70;99.90;;;;;;20615833;28;20613;-76
2021/01/10 19:17:54;;;;;;;2.00;1.43;;;6.60;99.90;;;;;;20622319;28;20673;-72
2021/01/10 19:27:57;;;;;;;0.20;0.20;;;6.50;99.90;;;;;;20622770;28;20508;-75
2021/01/10 19:38:00;;;;;;;3.03;0.70;;;6.30;99.90;;;;;;20619360;28;20202;-75
2021/01/10 19:48:03;;;;;;;1.73;1.00;;;6.30;99.90;;;;;;20621227;28;20231;-74
2021/01/10 19:58:07;;;;;;;2.03;1.47;;;6.40;99.90;;;;;;20620689;28;20207;-75
2021/01/10 20:08:09;;;;;;;0.30;0.30;;;6.40;99.90;;;;;;20619807;28;20332;-73
2021/01/10 20:18:13;;;;;;;0.53;0.43;;;6.40;99.90;;;;;;20616843;28;20258;-74
2021/01/10 20:28:16;;;;;;;1.43;0.67;;;6.40;99.90;;;;;;20618094;28;20223;-74
2021/01/10 20:38:21;;;;;;;0.93;0.63;;;6.60;99.90;;;;;;20617325;28;20199;-74
2021/01/10 20:48:24;;;;;;;2.50;1.20;;;6.30;99.90;;;;;;20618206;28;20880;-74
2021/01/10 20:58:27;;;;;;;1.33;1.23;;;6.20;99.90;;;;;;20617870;28;20203;-74
2021/01/10 21:08:30;;;;;;;0.63;0.43;;;6.10;99.90;;;;;;20612873;28;20262;-73
2021/01/10 21:18:33;;;;;;;2.73;1.67;;;6.10;99.90;;;;;;20616606;28;20188;-76
2021/01/10 21:28:36;;;;;;;1.17;1.00;;;6.10;99.90;;;;;;20617669;28;20278;-76
2021/01/10 21:38:42;;;;;;;0.87;0.77;;;6.10;99.90;;;;;;20617252;28;20657;-75
2021/01/10 21:48:45;;;;;;;1.40;1.33;;;6.00;99.90;;;;;;20614465;28;20223;-77
2021/01/10 21:58:50;;;;;;;0.60;0.60;;;5.90;99.90;;;;;;20615473;28;20204;-75
2021/01/10 22:08:52;;;;;;;0.20;0.10;;;5.90;99.90;;;;;;20494690;28;20236;-75
2021/01/10 22:18:56;;;;;;;0.20;0.20;;;5.90;99.90;;;;;;20571056;28;20207;-75
2021/01/10 22:29:00;;;;;;;0.57;0.53;;;5.80;99.90;;;;;;20589124;28;20475;-75
2021/01/10 22:39:04;;;;;;;2.50;0.97;;;5.80;99.90;;;;;;20565686;28;20198;-75
2021/01/10 22:49:07;;;;;;;1.30;0.90;;;5.80;99.90;;;;;;20603114;28;20627;-76
2021/01/10 22:59:10;;;;;;;0.97;0.87;;;5.70;99.90;;;;;;20604061;28;20212;-74
2021/01/10 23:09:13;;;;;;;0.40;0.40;;;5.70;99.90;;;;;;20601943;28;20608;-75
2021/01/10 23:19:16;;;;;;;0.20;0.20;;;5.70;99.90;;;;;;20600604;28;20196;-74
2021/01/10 23:29:19;;;;;;;0.40;0.40;;;5.60;99.90;;;;;;20600257;28;20343;-74
2021/01/10 23:39:22;;;;;;;0.20;0.20;;;5.60;99.90;;;;;;20612274;28;20242;-75
2021/01/10 23:49:25;;;;;;;0.37;0.37;;;5.50;99.90;;;;;;20619852;28;20692;-75
2021/01/10 23:59:28;;;;;;;1.97;0.60;;;5.50;99.90;;;;;;20607586;28;20199;-74
